Avalon, Pennsylvania
Current Conditions -  °F | °C
As of 11:35 AM on Wednesday 22 Oct 2014 (Local Time) from KPIT Reporting Station
Overcast Overcast  
Wind Chill:   Ceiling: 1600
Heat Index:   Visibility: 10mi
Dew Point:   Wind: 13mph
Humidity: 80%   Direction: 350°N
Pressure: 30.17"   Gusts: NA
Location:  40.5069°N, 80.0715°W
Report Text: KPIT 221535Z 35011KT 10SM OVC016 09/06 A3017 RMK AO2 T00940061
Loading
Personal Weather Stations






























Interactive Weather Map New forecast layout! Learn more

10-Day Weather Forecast

Advertisements
Track Severe Weather on mobile